Time;durP1;ratioP1;P1;durP2;ratioP2;P2;SDS_P1;SDS_P2;PMS_P1;PMS_P2;Temp;Humidity;BMP_temperature;BMP_pressure;BME280_temperature;BME280_humidity;BME280_pressure;Samples;Min_cycle;Max_cycle;Signal;HPM_P1;HPM_P2
2021/12/05 00:23:40;;;;;;;30.13;11.85;;;4.90;99.90;;;;;;4973506;28;20410;-77
2021/12/05 00:26:10;;;;;;;25.38;11.32;;;6.10;99.90;;;;;;4938777;28;20156;-74
2021/12/05 00:28:59;;;;;;;32.58;11.65;;;5.40;99.90;;;;;;4961188;28;20043;-77
2021/12/05 00:31:48;;;;;;;24.58;9.98;;;6.30;99.90;;;;;;4948627;28;20081;-76
2021/12/05 00:47:39;;;;;;;20.02;8.98;;;4.70;99.90;;;;;;4945359;28;20094;-75
2021/12/05 00:50:40;;;;;;;;;;;6.20;99.90;;;;;;4952694;28;20135;-76
2021/12/05 01:14:01;;;;;;;16.13;8.48;;;5.80;99.90;;;;;;5023780;28;20057;-75
2021/12/05 01:16:27;;;;;;;;;;;4.60;99.90;;;;;;5021914;28;20446;-76
2021/12/05 01:18:53;;;;;;;13.82;7.20;;;4.60;99.90;;;;;;5022599;28;19974;-74
2021/12/05 01:21:22;;;;;;;14.00;7.63;;;4.50;99.90;;;;;;5024828;28;20045;-75
2021/12/05 01:26:25;;;;;;;17.05;7.97;;;5.20;99.90;;;;;;4960779;28;20058;-75
2021/12/05 01:50:40;;;;;;;16.25;7.20;;;4.20;99.90;;;;;;5033907;28;20420;-74
2021/12/05 01:56:03;;;;;;;11.85;6.78;;;5.60;99.90;;;;;;5050518;28;20056;-77
2021/12/05 02:34:07;;;;;;;10.15;6.20;;;5.50;99.90;;;;;;4949942;28;20567;-76
2021/12/05 02:36:54;;;;;;;12.13;7.70;;;4.10;99.90;;;;;;4969976;28;20043;-76
2021/12/05 02:41:49;;;;;;;13.20;7.28;;;5.40;99.90;;;;;;4968659;28;20492;-75
2021/12/05 02:44:21;;;;;;;11.48;6.60;;;4.50;99.90;;;;;;4964767;28;20047;-73
2021/12/05 02:46:52;;;;;;;13.88;6.90;;;5.40;99.90;;;;;;4959539;28;20402;-73
2021/12/05 02:49:18;;;;;;;12.68;6.70;;;4.30;99.90;;;;;;4967913;28;20122;-74
2021/12/05 02:52:00;;;;;;;13.57;6.55;;;4.20;99.90;;;;;;4993339;28;20427;-73
2021/12/05 02:54:30;;;;;;;9.73;6.47;;;3.90;99.90;;;;;;4970043;28;20484;-73
2021/12/05 02:56:58;;;;;;;12.05;6.25;;;4.00;99.90;;;;;;4978104;28;20040;-73
2021/12/05 03:00:06;;;;;;;10.73;6.22;;;3.90;99.90;;;;;;4978045;28;20107;-73
2021/12/05 03:02:19;;;;;;;11.02;5.95;;;5.50;99.90;;;;;;4966790;28;20379;-73
2021/12/05 03:04:47;;;;;;;12.05;6.22;;;4.00;99.90;;;;;;4994321;28;20042;-73
2021/12/05 03:07:17;;;;;;;12.57;6.32;;;4.10;99.90;;;;;;4973377;28;20034;-72
2021/12/05 03:09:43;;;;;;;10.45;5.75;;;4.40;99.90;;;;;;4966703;28;20087;-73
2021/12/05 03:12:16;;;;;;;15.70;6.82;;;4.20;99.90;;;;;;4972821;28;20053;-73
2021/12/05 03:14:43;;;;;;;12.55;6.35;;;5.40;99.90;;;;;;4965142;28;20117;-73
2021/12/05 03:17:09;;;;;;;11.75;6.20;;;5.80;99.90;;;;;;4961059;28;20034;-72
2021/12/05 03:19:35;;;;;;;11.60;6.25;;;5.60;99.90;;;;;;4989832;28;20079;-75
2021/12/05 03:22:00;;;;;;;12.88;6.70;;;5.50;99.90;;;;;;4981406;28;20103;-75
2021/12/05 03:24:27;;;;;;;13.13;6.90;;;5.60;99.90;;;;;;4967642;28;20058;-73
2021/12/05 03:26:53;;;;;;;16.42;8.07;;;4.10;99.90;;;;;;4967598;28;20054;-75
2021/12/05 03:29:21;;;;;;;11.07;6.50;;;5.60;99.90;;;;;;4979181;28;20444;-73
2021/12/05 03:31:48;;;;;;;14.20;6.38;;;4.30;99.90;;;;;;4974754;28;20100;-75
2021/12/05 03:34:15;;;;;;;21.45;7.78;;;4.20;99.90;;;;;;4972765;28;20045;-76
2021/12/05 03:36:44;;;;;;;14.10;6.95;;;5.30;99.90;;;;;;4972243;28;20417;-76
2021/12/05 03:39:11;;;;;;;16.15;7.38;;;4.30;99.90;;;;;;4994648;28;20098;-75
2021/12/05 03:41:38;;;;;;;11.43;6.68;;;4.60;99.90;;;;;;4971940;28;20591;-74
2021/12/05 03:44:06;;;;;;;11.20;6.75;;;5.30;99.90;;;;;;4981552;28;20375;-75
2021/12/05 03:46:32;;;;;;;12.25;7.22;;;5.40;99.90;;;;;;4970024;28;20042;-76
2021/12/05 03:49:02;;;;;;;12.38;7.13;;;5.50;99.90;;;;;;4967563;28;20051;-76
2021/12/05 03:51:31;;;;;;;14.18;7.97;;;4.60;99.90;;;;;;4991063;28;20046;-77
2021/12/05 03:53:57;;;;;;;17.25;7.38;;;4.40;99.90;;;;;;4983622;28;20053;-77
2021/12/05 03:56:23;;;;;;;11.95;7.82;;;4.20;99.90;;;;;;4970120;28;20054;-76
2021/12/05 03:58:51;;;;;;;15.95;9.30;;;5.60;99.90;;;;;;4995238;28;20454;-75
2021/12/05 04:01:18;;;;;;;16.30;8.88;;;4.30;99.90;;;;;;4971588;28;20034;-77
2021/12/05 04:03:47;;;;;;;19.05;9.10;;;4.70;99.90;;;;;;5003623;28;20406;-74
2021/12/05 04:06:15;;;;;;;19.25;9.52;;;4.50;99.90;;;;;;4952951;28;20051;-74
2021/12/05 04:08:42;;;;;;;19.05;9.48;;;5.70;99.90;;;;;;4986407;28;20477;-74
2021/12/05 04:11:13;;;;;;;16.55;8.65;;;5.60;99.90;;;;;;5001700;28;20042;-74
2021/12/05 04:13:39;;;;;;;15.30;9.38;;;4.20;99.90;;;;;;4958639;28;20046;-74
2021/12/05 04:16:07;;;;;;;20.10;10.05;;;4.10;99.90;;;;;;4972993;28;20519;-75
2021/12/05 04:18:33;;;;;;;18.77;10.10;;;4.50;99.90;;;;;;4955744;28;20034;-74
2021/12/05 04:21:00;;;;;;;24.05;10.43;;;5.50;99.90;;;;;;4962290;28;20049;-73
2021/12/05 04:23:27;;;;;;;23.40;10.63;;;5.30;99.90;;;;;;4967237;28;20042;-72
2021/12/05 04:25:53;;;;;;;18.92;9.40;;;5.70;99.90;;;;;;4965411;28;20397;-76
2021/12/05 04:28:21;;;;;;;18.85;10.73;;;4.50;99.90;;;;;;4970157;28;20467;-74
2021/12/05 04:30:47;;;;;;;23.73;10.68;;;4.50;99.90;;;;;;4961975;28;20061;-72
2021/12/05 04:33:13;;;;;;;18.42;10.30;;;4.00;99.90;;;;;;4997960;28;20125;-74
2021/12/05 04:35:39;;;;;;;19.88;10.98;;;5.70;99.90;;;;;;4952829;28;20046;-74
2021/12/05 04:38:05;;;;;;;25.40;13.15;;;5.40;99.90;;;;;;4969400;28;20043;-75
2021/12/05 04:40:33;;;;;;;22.00;11.25;;;5.30;99.90;;;;;;4967629;28;20030;-73
2021/12/05 04:43:00;;;;;;;22.08;11.18;;;5.50;99.90;;;;;;4997837;28;20046;-76
2021/12/05 04:45:30;;;;;;;22.65;11.23;;;5.30;99.90;;;;;;4970859;28;20050;-73
2021/12/05 04:47:56;;;;;;;25.33;11.40;;;5.40;99.90;;;;;;4975840;28;20096;-73
2021/12/05 04:50:22;;;;;;;27.67;12.68;;;5.20;99.90;;;;;;4958527;28;20417;-77
2021/12/05 04:52:48;;;;;;;26.50;12.63;;;3.90;99.90;;;;;;4974553;28;20049;-75
2021/12/05 04:55:16;;;;;;;22.50;12.90;;;5.10;99.90;;;;;;4967439;28;20039;-77
2021/12/05 04:57:42;;;;;;;25.13;13.50;;;5.20;99.90;;;;;;4963821;28;20043;-74
2021/12/05 05:00:19;;;;;;;25.58;12.75;;;4.70;99.90;;;;;;4972762;28;20091;-75
2021/12/05 05:02:45;;;;;;;22.30;12.43;;;5.40;99.90;;;;;;4997226;28;20058;-75
2021/12/05 05:05:12;;;;;;;25.27;13.48;;;5.10;99.90;;;;;;4971567;28;20039;-74
2021/12/05 05:07:40;;;;;;;24.65;13.35;;;3.90;99.90;;;;;;4980616;28;20555;-76
2021/12/05 05:10:15;;;;;;;23.70;13.63;;;4.00;99.90;;;;;;4973888;28;20042;-75
2021/12/05 05:12:40;;;;;;;23.30;13.15;;;3.90;99.90;;;;;;4987201;28;20128;-76
2021/12/05 05:15:09;;;;;;;28.52;13.55;;;4.30;99.90;;;;;;4966359;28;20490;-72
2021/12/05 05:17:36;;;;;;;24.15;13.00;;;5.30;99.90;;;;;;4982135;28;20046;-76
2021/12/05 05:20:11;;;;;;;28.00;12.50;;;5.00;99.90;;;;;;4967439;28;20050;-74
2021/12/05 05:22:45;;;;;;;;;;;3.90;99.90;;;;;;4976253;28;20485;-76
2021/12/05 05:39:14;;;;;;;23.90;12.05;;;3.80;99.90;;;;;;4996168;28;20046;-74
2021/12/05 05:52:08;;;;;;;20.17;11.88;;;5.20;99.90;;;;;;4980947;28;20053;-73
2021/12/05 05:54:34;;;;;;;19.17;10.55;;;5.20;99.90;;;;;;4969107;28;20046;-73
2021/12/05 05:57:10;;;;;;;21.23;10.93;;;3.80;99.90;;;;;;4985560;28;20123;-74
2021/12/05 05:59:54;;;;;;;23.80;10.80;;;4.20;99.90;;;;;;4979319;28;20410;-73
2021/12/05 06:05:04;;;;;;;16.80;10.10;;;5.10;99.90;;;;;;4996994;28;20045;-73
2021/12/05 06:07:30;;;;;;;18.27;9.65;;;3.80;99.90;;;;;;5005308;28;20486;-74
2021/12/05 06:09:56;;;;;;;16.48;9.30;;;3.80;99.90;;;;;;4990181;28;20038;-72
2021/12/05 06:12:22;;;;;;;21.33;10.27;;;4.80;99.90;;;;;;4999657;28;20100;-72
2021/12/05 06:14:48;;;;;;;12.77;8.65;;;3.70;99.90;;;;;;4993638;28;20474;-72
2021/12/05 06:17:17;;;;;;;19.00;9.05;;;5.00;99.90;;;;;;4970665;28;20050;-73
2021/12/05 06:19:43;;;;;;;19.15;9.15;;;5.00;99.90;;;;;;4950630;28;20043;-73
2021/12/05 06:22:09;;;;;;;15.75;8.35;;;3.70;99.90;;;;;;4954943;28;20112;-74
2021/12/05 06:24:35;;;;;;;23.92;9.80;;;4.30;99.90;;;;;;4977292;28;20448;-72
2021/12/05 06:27:01;;;;;;;17.73;8.32;;;4.50;99.90;;;;;;4986985;28;20421;-74
2021/12/05 06:29:33;;;;;;;15.48;8.70;;;3.90;99.90;;;;;;4972074;28;20042;-74
2021/12/05 06:37:43;;;;;;;15.95;7.88;;;4.20;99.90;;;;;;4965656;28;20077;-76
2021/12/05 06:40:23;;;;;;;18.52;7.82;;;4.80;99.90;;;;;;4970347;28;20038;-75
2021/12/05 06:45:56;;;;;;;18.08;7.85;;;4.80;99.90;;;;;;4957073;28;20492;-72
2021/12/05 06:46:10;;;;;;;19.50;7.90;;;4.80;99.90;;;;;;4970133;28;20095;-76
2021/12/05 06:48:35;;;;;;;19.27;8.02;;;4.70;99.90;;;;;;4988850;28;20051;-74
2021/12/05 06:51:03;;;;;;;16.88;7.47;;;3.50;99.90;;;;;;4980754;28;20158;-71
2021/12/05 06:53:29;;;;;;;15.73;6.90;;;5.00;99.90;;;;;;4994237;28;20577;-71
2021/12/05 06:55:55;;;;;;;16.50;7.43;;;3.90;99.90;;;;;;4989228;28;20079;-73
2021/12/05 06:58:20;;;;;;;16.55;6.38;;;4.40;99.90;;;;;;4976118;28;20421;-74
2021/12/05 07:00:46;;;;;;;15.93;6.30;;;3.60;99.90;;;;;;4981396;28;20069;-74
2021/12/05 07:03:13;;;;;;;19.38;7.93;;;3.50;99.90;;;;;;4992736;28;20107;-72
2021/12/05 07:05:44;;;;;;;17.50;7.10;;;4.20;99.90;;;;;;4969262;28;20058;-72
2021/12/05 07:08:14;;;;;;;16.08;6.80;;;3.60;99.90;;;;;;4997639;28;20056;-72
2021/12/05 07:40:25;;;;;;;14.73;7.75;;;4.60;99.90;;;;;;4971492;28;20046;-73
2021/12/05 07:42:54;;;;;;;14.15;7.63;;;4.20;99.90;;;;;;5022465;28;20055;-73
2021/12/05 07:45:27;;;;;;;14.13;7.28;;;4.60;99.90;;;;;;4939620;28;20059;-75
2021/12/05 07:47:55;;;;;;;18.58;8.77;;;3.70;99.90;;;;;;4957062;28;20056;-72
2021/12/05 07:50:39;;;;;;;18.80;9.00;;;3.50;99.90;;;;;;4959030;28;20463;-74
2021/12/05 07:53:10;;;;;;;18.02;8.02;;;3.50;99.90;;;;;;4929021;28;20075;-71
2021/12/05 07:55:42;;;;;;;16.70;7.50;;;3.30;99.90;;;;;;4950598;28;20054;-72
2021/12/05 08:00:58;;;;;;;17.45;8.15;;;4.10;99.90;;;;;;4980267;28;20043;-72
2021/12/05 08:14:34;;;;;;;16.23;7.40;;;4.00;99.90;;;;;;4952482;28;20586;-72
2021/12/05 08:17:01;;;;;;;15.57;7.25;;;4.50;99.90;;;;;;4956341;28;20046;-73
2021/12/05 08:19:27;;;;;;;20.42;8.25;;;4.70;99.90;;;;;;4947977;28;20054;-73
2021/12/05 08:21:55;;;;;;;24.02;8.38;;;4.50;99.90;;;;;;4955143;28;20043;-73
2021/12/05 08:24:30;;;;;;;20.25;8.38;;;4.60;99.90;;;;;;4950344;28;20043;-74
2021/12/05 08:26:55;;;;;;;18.63;8.52;;;3.80;99.90;;;;;;4941948;28;20046;-73
2021/12/05 08:29:38;;;;;;;15.80;9.00;;;4.60;99.90;;;;;;4946643;28;20104;-72
2021/12/05 08:32:16;;;;;;;15.70;7.72;;;4.70;99.90;;;;;;4945432;28;20047;-72
2021/12/05 08:34:57;;;;;;;18.58;9.23;;;3.50;99.90;;;;;;4944327;28;20430;-73
2021/12/05 08:38:13;;;;;;;22.40;8.88;;;4.70;99.90;;;;;;4949495;28;20113;-76
2021/12/05 08:43:24;;;;;;;11.73;6.32;;;3.30;99.90;;;;;;5020590;28;20060;-78
2021/12/05 10:35:45;;;;;;;20.83;9.40;;;4.30;99.90;;;;;;4952723;28;20049;-74
2021/12/05 10:38:14;;;;;;;18.42;9.38;;;4.20;99.90;;;;;;4954530;28;20055;-75
2021/12/05 10:41:01;;;;;;;16.90;9.18;;;4.80;99.90;;;;;;4931388;28;20092;-74
2021/12/05 10:43:30;;;;;;;21.33;10.02;;;4.40;99.90;;;;;;4941244;28;20051;-75
2021/12/05 10:46:08;;;;;;;15.50;8.68;;;5.20;99.90;;;;;;4928655;28;20091;-74
2021/12/05 10:48:41;;;;;;;19.10;9.90;;;5.20;99.90;;;;;;4943334;28;20043;-74
2021/12/05 10:51:09;;;;;;;21.27;9.90;;;4.10;99.90;;;;;;4942284;28;20102;-74
2021/12/05 10:53:38;;;;;;;18.20;9.25;;;5.30;99.90;;;;;;4929899;28;20051;-74
2021/12/05 10:56:20;;;;;;;14.10;9.13;;;5.30;99.90;;;;;;4927340;28;20062;-74
2021/12/05 10:59:13;;;;;;;18.33;9.32;;;4.20;99.90;;;;;;4935078;28;20047;-74
2021/12/05 11:01:45;;;;;;;18.73;9.60;;;5.40;99.90;;;;;;4960602;28;20043;-74
2021/12/05 11:04:18;;;;;;;18.67;9.65;;;4.30;99.90;;;;;;4938183;28;20190;-75
2021/12/05 11:06:50;;;;;;;19.98;10.20;;;5.00;99.90;;;;;;4924916;28;20078;-74
2021/12/05 11:09:26;;;;;;;17.70;10.45;;;5.30;99.90;;;;;;4942351;28;20031;-74
2021/12/05 11:12:24;;;;;;;23.02;9.70;;;4.30;99.90;;;;;;4936398;28;20122;-75
2021/12/05 11:14:55;;;;;;;16.88;9.07;;;4.60;99.90;;;;;;4964912;28;20059;-74
2021/12/05 11:17:26;;;;;;;17.80;10.23;;;5.20;99.90;;;;;;4940442;28;20082;-74
2021/12/05 11:19:58;;;;;;;19.15;10.25;;;5.40;99.90;;;;;;4947318;28;20571;-73
2021/12/05 11:22:31;;;;;;;18.77;9.35;;;5.30;99.90;;;;;;4937294;28;20770;-74
2021/12/05 11:25:00;;;;;;;19.38;10.02;;;5.40;99.90;;;;;;4939851;28;20074;-75
2021/12/05 11:27:30;;;;;;;18.23;9.63;;;5.60;99.90;;;;;;4951229;28;20153;-75
2021/12/05 11:30:03;;;;;;;24.67;11.00;;;5.40;99.90;;;;;;4965164;28;20110;-76
2021/12/05 11:32:42;;;;;;;15.40;9.68;;;5.50;99.90;;;;;;4970995;28;20065;-75
2021/12/05 11:35:26;;;;;;;25.63;12.13;;;5.40;99.90;;;;;;4961010;28;20827;-75
2021/12/05 11:38:00;;;;;;;22.98;10.38;;;4.70;99.90;;;;;;4999537;28;20914;-75
2021/12/05 11:40:39;;;;;;;20.95;10.80;;;5.40;99.90;;;;;;4946929;28;20042;-74
2021/12/05 11:43:05;;;;;;;19.25;10.05;;;5.80;99.90;;;;;;4960441;28;20057;-76
2021/12/05 11:45:48;;;;;;;20.30;11.55;;;5.60;99.90;;;;;;4963884;28;20046;-75
2021/12/05 11:48:21;;;;;;;18.85;9.90;;;5.20;99.90;;;;;;4997473;28;20050;-76
2021/12/05 11:50:48;;;;;;;18.48;10.15;;;5.70;99.90;;;;;;4958710;28;20152;-76
2021/12/05 11:53:14;;;;;;;17.80;10.02;;;5.60;99.90;;;;;;4956160;28;20042;-75
2021/12/05 11:55:40;;;;;;;20.38;10.88;;;5.10;99.90;;;;;;4966304;28;20095;-76
2021/12/05 11:58:17;;;;;;;16.98;10.35;;;5.70;99.90;;;;;;4983818;28;20130;-77
2021/12/05 12:00:43;;;;;;;15.85;10.43;;;4.80;99.90;;;;;;4957510;28;20071;-75
2021/12/05 12:03:09;;;;;;;17.55;10.57;;;5.70;99.90;;;;;;4953828;28;20042;-76
2021/12/05 12:05:37;;;;;;;22.48;11.38;;;5.70;99.90;;;;;;4966156;28;20117;-75
2021/12/05 12:08:09;;;;;;;19.65;10.90;;;4.80;99.90;;;;;;4961114;28;20046;-76
2021/12/05 12:10:41;;;;;;;17.35;10.60;;;5.70;99.90;;;;;;4957327;28;20108;-76
2021/12/05 12:13:13;;;;;;;21.70;11.23;;;5.90;99.90;;;;;;4994491;28;20558;-76
2021/12/05 12:15:42;;;;;;;21.05;10.80;;;5.80;99.90;;;;;;4962105;28;20179;-77
2021/12/05 12:18:21;;;;;;;22.23;10.02;;;5.90;99.90;;;;;;4959230;28;20054;-75
2021/12/05 12:20:47;;;;;;;18.20;9.45;;;5.90;99.90;;;;;;4958123;28;20129;-75
2021/12/05 12:23:15;;;;;;;20.15;10.40;;;5.00;99.90;;;;;;4989300;28;20434;-76
2021/12/05 12:25:43;;;;;;;22.02;10.77;;;5.20;99.90;;;;;;4963773;28;20046;-75
2021/12/05 12:28:12;;;;;;;20.02;11.10;;;5.80;99.90;;;;;;4986772;28;20132;-76
2021/12/05 12:30:41;;;;;;;25.00;11.10;;;5.60;99.90;;;;;;4946886;28;20410;-77
2021/12/05 12:33:17;;;;;;;22.55;11.90;;;5.10;99.90;;;;;;4989497;28;20070;-74
2021/12/05 12:35:45;;;;;;;20.95;10.25;;;5.80;99.90;;;;;;4954736;28;20035;-74
2021/12/05 12:38:24;;;;;;;18.27;9.77;;;5.60;99.90;;;;;;5072516;28;20040;-73
2021/12/05 12:40:55;;;;;;;19.98;9.65;;;5.10;99.90;;;;;;5038942;28;20042;-74
2021/12/05 12:43:58;;;;;;;19.58;10.18;;;5.90;99.90;;;;;;4983248;28;20079;-74
2021/12/05 12:46:33;;;;;;;20.08;10.48;;;5.80;99.90;;;;;;4955237;28;20042;-76
2021/12/05 12:49:14;;;;;;;16.75;9.50;;;5.30;99.90;;;;;;4962331;28;20402;-74
2021/12/05 12:51:57;;;;;;;18.45;9.00;;;5.10;99.90;;;;;;4957279;28;20043;-74
2021/12/05 12:54:37;;;;;;;16.13;9.32;;;5.10;99.90;;;;;;4931608;28;20567;-75
2021/12/05 12:57:23;;;;;;;16.90;9.43;;;5.80;99.90;;;;;;4959819;28;20050;-74
2021/12/05 13:00:05;;;;;;;18.15;9.20;;;5.90;99.90;;;;;;4965652;28;20042;-75
2021/12/05 13:07:15;;;;;;;13.75;8.50;;;5.80;99.90;;;;;;4963574;28;20053;-74
2021/12/05 13:11:22;;;;;;;18.10;9.35;;;5.90;99.90;;;;;;4984408;28;20129;-75
2021/12/05 13:14:06;;;;;;;16.00;8.32;;;5.30;99.90;;;;;;4970498;28;20604;-74
2021/12/05 13:16:35;;;;;;;17.08;8.60;;;5.40;99.90;;;;;;4947283;28;20648;-75
2021/12/05 13:19:19;;;;;;;14.90;8.45;;;5.80;99.90;;;;;;4991063;28;20475;-74
2021/12/05 13:21:49;;;;;;;18.00;9.35;;;5.80;99.90;;;;;;4978831;28;20482;-74
2021/12/05 13:24:29;;;;;;;16.88;8.65;;;5.50;99.90;;;;;;4979596;28;20129;-74
2021/12/05 13:27:03;;;;;;;12.45;7.95;;;5.20;99.90;;;;;;4951588;28;20042;-75
2021/12/05 13:29:48;;;;;;;14.82;7.47;;;5.30;99.90;;;;;;4927979;28;20051;-76
2021/12/05 13:32:25;;;;;;;14.30;7.57;;;5.60;99.90;;;;;;4914436;28;20059;-74
2021/12/05 13:34:54;;;;;;;18.75;8.40;;;5.30;99.90;;;;;;4947015;28;20625;-74
2021/12/05 13:37:29;;;;;;;15.25;7.60;;;5.80;99.90;;;;;;4937457;28;20050;-74
2021/12/05 13:40:08;;;;;;;17.00;9.18;;;5.90;99.90;;;;;;4955380;28;20039;-74
2021/12/05 13:42:39;;;;;;;16.60;8.20;;;5.90;99.90;;;;;;4941731;28;20197;-75
2021/12/05 13:45:09;;;;;;;13.63;8.00;;;5.80;99.90;;;;;;4943699;28;20541;-74
2021/12/05 13:48:09;;;;;;;14.13;7.00;;;5.80;99.90;;;;;;4943361;28;20089;-74
2021/12/05 13:51:08;;;;;;;17.67;8.57;;;5.90;99.90;;;;;;4939896;29;20495;-75
2021/12/05 13:53:46;;;;;;;12.00;8.48;;;5.20;99.90;;;;;;4944877;28;20060;-74
2021/12/05 13:56:15;;;;;;;14.43;9.05;;;5.80;99.90;;;;;;4935234;28;20043;-76
2021/12/05 13:58:48;;;;;;;13.02;8.02;;;5.20;99.90;;;;;;4934604;28;20053;-75
2021/12/05 14:01:44;;;;;;;20.00;8.65;;;5.30;99.90;;;;;;4958595;28;20047;-74
2021/12/05 14:04:16;;;;;;;13.20;8.88;;;5.20;99.90;;;;;;4944011;28;20066;-75
2021/12/05 14:07:01;;;;;;;16.30;9.85;;;5.80;99.90;;;;;;4950114;28;20047;-74
2021/12/05 14:09:35;;;;;;;11.57;8.00;;;5.80;99.90;;;;;;4945777;28;20047;-73
2021/12/05 14:12:07;;;;;;;20.50;9.90;;;5.00;99.90;;;;;;4938862;29;20052;-74
2021/12/05 14:14:40;;;;;;;15.32;9.25;;;5.20;99.90;;;;;;4940624;28;20050;-74
2021/12/05 14:17:19;;;;;;;17.50;9.25;;;5.00;99.90;;;;;;4944611;28;20043;-73
2021/12/05 14:19:49;;;;;;;16.90;9.02;;;5.80;99.90;;;;;;4962638;28;20097;-75
2021/12/05 14:22:18;;;;;;;16.42;8.73;;;4.90;99.90;;;;;;4944246;28;20122;-74
2021/12/05 14:24:46;;;;;;;18.35;10.18;;;5.80;99.90;;;;;;4939862;28;20049;-75
2021/12/05 14:27:18;;;;;;;21.42;10.90;;;5.80;99.90;;;;;;4930540;28;20052;-73
2021/12/05 14:29:47;;;;;;;16.92;9.20;;;5.70;99.90;;;;;;4958686;28;20120;-75
2021/12/05 14:32:21;;;;;;;19.63;9.68;;;5.50;99.90;;;;;;4947410;28;20057;-76
2021/12/05 14:34:50;;;;;;;19.10;11.55;;;5.70;99.90;;;;;;4953945;28;20042;-75
2021/12/05 14:37:19;;;;;;;17.88;10.82;;;4.80;99.90;;;;;;4982109;28;20042;-74
2021/12/05 14:39:55;;;;;;;20.55;10.07;;;4.80;99.90;;;;;;4961285;28;20390;-75
2021/12/05 14:42:23;;;;;;;17.90;10.90;;;5.80;99.90;;;;;;4990114;28;20050;-74
2021/12/05 14:44:56;;;;;;;14.35;9.05;;;5.10;99.90;;;;;;4960987;28;20042;-74
2021/12/05 14:47:25;;;;;;;16.77;10.07;;;5.50;99.90;;;;;;4962824;28;20046;-75
2021/12/05 14:49:58;;;;;;;22.38;9.88;;;5.10;99.90;;;;;;4946649;28;20418;-76
2021/12/05 14:52:32;;;;;;;16.85;9.75;;;5.60;99.90;;;;;;4958732;28;20121;-76
2021/12/05 14:55:00;;;;;;;15.38;9.40;;;5.50;99.90;;;;;;4980335;28;20125;-75
2021/12/05 14:57:31;;;;;;;19.13;10.73;;;5.50;99.90;;;;;;4959738;28;20073;-76
2021/12/05 15:00:09;;;;;;;21.05;10.15;;;4.90;99.90;;;;;;4979199;28;20050;-75
2021/12/05 15:02:36;;;;;;;17.02;10.13;;;5.50;99.90;;;;;;4958857;28;20395;-75
2021/12/05 15:05:03;;;;;;;23.35;10.48;;;5.60;99.90;;;;;;4944636;28;20046;-75
2021/12/05 15:07:29;;;;;;;19.65;10.90;;;5.20;99.90;;;;;;4962440;28;20559;-78
2021/12/05 15:09:57;;;;;;;20.55;10.10;;;4.90;99.90;;;;;;4958069;28;20127;-75
2021/12/05 15:12:29;;;;;;;17.25;9.23;;;4.60;99.90;;;;;;4973280;28;20050;-75
2021/12/05 15:14:57;;;;;;;21.98;10.50;;;4.90;99.90;;;;;;4973772;28;20673;-75
2021/12/05 15:17:30;;;;;;;19.05;9.23;;;4.50;99.90;;;;;;4968648;28;20042;-74
2021/12/05 15:19:59;;;;;;;16.65;9.55;;;5.40;99.90;;;;;;4969550;28;20042;-74
2021/12/05 15:22:25;;;;;;;17.30;9.35;;;5.20;99.90;;;;;;4958717;28;20129;-75
2021/12/05 15:24:58;;;;;;;16.38;9.52;;;4.50;99.90;;;;;;4966387;28;20438;-75
2021/12/05 15:27:26;;;;;;;16.52;9.07;;;5.60;99.90;;;;;;4959177;28;20132;-74
2021/12/05 15:29:58;;;;;;;17.45;10.30;;;4.60;99.90;;;;;;4979651;28;20057;-75
2021/12/05 15:32:28;;;;;;;18.63;9.82;;;5.50;99.90;;;;;;4987903;28;20043;-74
2021/12/05 15:35:01;;;;;;;17.20;9.70;;;6.00;99.90;;;;;;4988326;28;20045;-75
2021/12/05 15:37:27;;;;;;;19.70;9.82;;;5.20;99.90;;;;;;5024677;28;20042;-74
2021/12/05 15:39:55;;;;;;;22.00;11.63;;;6.00;99.90;;;;;;4989094;28;20038;-74
2021/12/05 15:42:25;;;;;;;19.75;10.77;;;4.50;99.90;;;;;;4966930;28;20054;-74
2021/12/05 15:44:54;;;;;;;21.25;11.25;;;5.40;99.90;;;;;;4960164;28;20050;-75
2021/12/05 15:47:26;;;;;;;17.67;9.75;;;5.00;99.90;;;;;;4958927;28;20058;-74
2021/12/05 15:50:12;;;;;;;18.55;10.90;;;5.50;99.90;;;;;;4979141;28;20074;-74
2021/12/05 15:52:39;;;;;;;23.52;11.00;;;5.50;99.90;;;;;;4967027;28;20053;-74
2021/12/05 15:55:12;;;;;;;22.63;11.20;;;4.40;99.90;;;;;;4956048;28;20096;-74
2021/12/05 15:57:41;;;;;;;21.55;11.20;;;5.60;99.90;;;;;;4945337;28;20514;-75
2021/12/05 16:00:22;;;;;;;20.23;12.07;;;4.30;99.90;;;;;;4993372;28;20050;-75
2021/12/05 16:02:56;;;;;;;24.17;11.43;;;5.50;99.90;;;;;;5000055;28;20042;-74
2021/12/05 16:05:23;;;;;;;20.23;11.98;;;4.40;99.90;;;;;;4963816;28;20092;-75
2021/12/05 16:07:50;;;;;;;22.85;13.25;;;4.80;99.90;;;;;;4931270;28;20053;-74
2021/12/05 16:10:24;;;;;;;21.73;12.98;;;5.50;99.90;;;;;;4962710;28;20103;-75
2021/12/05 16:12:52;;;;;;;22.73;12.75;;;4.30;99.90;;;;;;4965447;28;20048;-73
2021/12/05 16:15:26;;;;;;;20.52;12.70;;;4.50;99.90;;;;;;4953301;28;20090;-74
2021/12/05 16:17:55;;;;;;;23.00;13.15;;;4.30;99.90;;;;;;4967755;28;20065;-74
2021/12/05 16:20:27;;;;;;;24.08;13.18;;;5.60;99.90;;;;;;4984104;28;20125;-72
2021/12/05 16:23:16;;;;;;;23.40;12.63;;;5.10;99.90;;;;;;4994840;28;20053;-74
2021/12/05 16:26:16;;;;;;;21.05;13.05;;;4.10;99.90;;;;;;4966400;28;20613;-73
2021/12/05 16:29:13;;;;;;;19.83;11.73;;;4.10;99.90;;;;;;4951521;28;20165;-74
2021/12/05 16:31:53;;;;;;;25.85;14.10;;;5.40;99.90;;;;;;4978980;28;20048;-74
2021/12/05 16:34:31;;;;;;;27.95;13.98;;;4.00;99.90;;;;;;4986930;28;20123;-72
2021/12/05 16:37:03;;;;;;;30.67;15.48;;;5.10;99.90;;;;;;4939773;28;20055;-72
2021/12/05 16:39:32;;;;;;;27.05;15.18;;;4.80;99.90;;;;;;4975243;28;20082;-74
2021/12/05 16:42:02;;;;;;;28.10;14.85;;;4.60;99.90;;;;;;4926887;28;20054;-73
2021/12/05 16:44:34;;;;;;;30.33;15.75;;;4.50;99.90;;;;;;4913916;28;20135;-72
2021/12/05 16:47:08;;;;;;;25.45;14.48;;;4.00;99.90;;;;;;4974919;28;20039;-74
2021/12/05 16:49:37;;;;;;;20.48;13.25;;;5.10;99.90;;;;;;4956024;28;20043;-74
2021/12/05 16:52:14;;;;;;;24.95;13.93;;;5.10;99.90;;;;;;5024132;28;20053;-74
2021/12/05 16:54:51;;;;;;;23.83;13.27;;;4.00;99.90;;;;;;4945030;28;20093;-75
2021/12/05 16:57:32;;;;;;;27.88;14.68;;;5.10;99.90;;;;;;4940429;28;20513;-74
2021/12/05 17:00:19;;;;;;;22.83;13.50;;;3.90;99.90;;;;;;4945256;28;20051;-74
2021/12/05 17:02:54;;;;;;;27.75;14.75;;;4.00;99.90;;;;;;4943138;28;20074;-73
2021/12/05 17:05:26;;;;;;;27.42;15.80;;;5.50;99.90;;;;;;4943513;28;20043;-73
2021/12/05 17:08:15;;;;;;;28.08;15.25;;;5.20;99.90;;;;;;4933019;28;20056;-73
2021/12/05 17:10:47;;;;;;;30.45;15.55;;;5.20;99.90;;;;;;4939663;28;20054;-74
2021/12/05 17:13:24;;;;;;;29.40;15.73;;;5.20;99.90;;;;;;4944758;28;20444;-73
2021/12/05 17:16:00;;;;;;;27.42;15.07;;;5.00;99.90;;;;;;4934889;28;21648;-75
2021/12/05 17:18:31;;;;;;;22.92;13.98;;;3.90;99.90;;;;;;4949106;28;20035;-73
2021/12/05 17:21:01;;;;;;;27.13;14.77;;;4.90;99.90;;;;;;4945304;28;20047;-73
2021/12/05 17:23:38;;;;;;;20.77;12.82;;;4.40;99.90;;;;;;4955376;28;20140;-73
2021/12/05 17:26:20;;;;;;;29.55;14.40;;;5.00;99.90;;;;;;4969252;28;20050;-73
2021/12/05 17:29:19;;;;;;;26.23;14.10;;;5.00;99.90;;;;;;4953628;28;20056;-74
2021/12/05 17:31:52;;;;;;;21.52;13.38;;;3.90;99.90;;;;;;4937648;28;20047;-73
2021/12/05 17:34:24;;;;;;;24.40;13.38;;;5.20;99.90;;;;;;4941088;28;20065;-75
2021/12/05 17:37:04;;;;;;;21.38;12.50;;;3.70;99.90;;;;;;4937958;28;20844;-75
2021/12/05 17:39:34;;;;;;;22.73;12.90;;;3.70;99.90;;;;;;4940436;28;20039;-73
2021/12/05 17:42:10;;;;;;;22.75;11.75;;;3.60;99.90;;;;;;4939974;28;20051;-74
2021/12/05 17:44:37;;;;;;;18.38;10.82;;;4.90;99.90;;;;;;4936882;28;20801;-76
2021/12/05 17:47:07;;;;;;;20.15;11.13;;;3.60;99.90;;;;;;4928831;28;20047;-75
2021/12/05 17:49:35;;;;;;;17.95;10.57;;;4.40;99.90;;;;;;4934442;28;20058;-75
2021/12/05 17:52:02;;;;;;;17.63;10.65;;;3.50;99.90;;;;;;4941760;28;20043;-74
2021/12/05 17:54:41;;;;;;;17.98;10.95;;;4.20;99.90;;;;;;4939847;28;20503;-73
2021/12/05 17:57:16;;;;;;;16.75;10.43;;;4.80;99.90;;;;;;4938749;29;20078;-74
2021/12/05 18:05:03;;;;;;;20.70;13.18;;;4.00;99.90;;;;;;4942563;28;20053;-73
2021/12/05 18:07:29;;;;;;;18.98;11.70;;;3.90;99.90;;;;;;4942810;28;20055;-75
2021/12/05 18:09:55;;;;;;;16.67;10.55;;;3.20;99.90;;;;;;4942465;28;20434;-75
2021/12/05 18:12:23;;;;;;;17.60;10.52;;;3.40;99.90;;;;;;4940246;28;20441;-74
2021/12/05 18:14:51;;;;;;;19.48;11.98;;;3.60;99.90;;;;;;4940461;28;20061;-73
2021/12/05 18:17:17;;;;;;;15.63;10.48;;;4.40;99.90;;;;;;4937939;29;20048;-75
2021/12/05 18:19:43;;;;;;;17.98;11.30;;;3.30;99.90;;;;;;4933285;28;20036;-73
2021/12/05 18:22:10;;;;;;;21.80;14.13;;;4.40;99.90;;;;;;4936436;28;20062;-75
2021/12/05 18:24:36;;;;;;;19.25;12.82;;;3.20;99.90;;;;;;4933024;28;20043;-73
2021/12/05 18:27:03;;;;;;;19.10;11.45;;;4.20;99.90;;;;;;4942462;28;20126;-72
2021/12/05 18:29:29;;;;;;;17.15;11.98;;;4.20;99.90;;;;;;4940443;28;20660;-73
2021/12/05 18:31:56;;;;;;;18.60;12.30;;;4.20;99.90;;;;;;4936911;28;20053;-76